Řízení letového provozu České republiky
Letiste: LKTB Aktualizace: 29.04.2017 05:11:04  UTC
 METAR LKTB 29.04. 05:00 ...
METAR LKTB 290500Z 17004KT 6000 NSC 02/01 Q1017 NOSIG RMK REG QNH 1012=
 TAF LKTB 29.04. 05:00 ...
TAF LKTB 290500Z 2906/3012 30004KT 9999 SCT035      TEMPO 2908/2919 7000 SHRA FEW025TCU BKN035      BECMG 2919/2921 VRB02KT 3000 BR NSC      TEMPO 2921/3005 1200 BR BKN005      PROB30 TEMPO 2922/3003 0500 FG VV002      BECMG 3005/3008 07010KT 9999 SCT035      TEMPO 3008/3012 BKN030=